Archival Weather

Tcnl Rafael Pabon

Tcnl Rafael Pabon, Bolivia (SLVM)

Report from: Thursday, December 7, 2023 2:00 PM -04
Current time: Tuesday, April 23, 2024 4:24 AM -04

Current weather – Weather history – Daily summaries
Weather forecast

Temperature28.0°C (82.4°F)
Heat index31.4°C (88.5°F)
Dew point23.0°C (73.4°F)
Winds Calm
Visibility6.2 mi. (10 km)
Clouds Scattered clouds 2,000 ft. (610 m)
Ceiling: Overcast 7,000 ft. (2,134 m)
Altimeter29.91 in.Hg (1013 mB)
Relative humidity74 %
Density altitude1,881 ft. (573 m)
Flight conditions Visual Meteorological Conditions
Raw dataSLVM 071800Z 00000KT 9999 SCT020 OVC070 28/23 Q1013
An error has occurred. This application may no longer respond until reloaded. Reload 🗙